Time;durP1;ratioP1;P1;durP2;ratioP2;P2;SDS_P1;SDS_P2;PMS_P1;PMS_P2;Temp;Humidity;BMP_temperature;BMP_pressure;BME280_temperature;BME280_humidity;BME280_pressure;Samples;Min_cycle;Max_cycle;Signal;HPM_P1;HPM_P2
2021/12/18 00:01:32;;;;;;;3.75;1.70;;;;;;;8.69;56.17;101684.36;1659888;84;21038;-52
2021/12/18 00:03:59;;;;;;;2.22;1.40;;;;;;;8.70;56.02;101694.72;1665828;85;21038;-51
2021/12/18 00:06:27;;;;;;;1.92;1.45;;;;;;;8.70;56.23;101696.45;1657272;85;21070;-51
2021/12/18 00:08:55;;;;;;;3.30;1.70;;;;;;;8.72;56.18;101699.91;1663522;85;21038;-51
2021/12/18 00:11:23;;;;;;;3.40;1.92;;;;;;;8.72;56.26;101698.19;1670790;84;21137;-50
2021/12/18 00:13:50;;;;;;;2.45;1.70;;;;;;;8.69;56.32;101700.80;1692580;84;21091;-51
2021/12/18 00:16:16;;;;;;;2.77;1.72;;;;;;;8.70;56.41;101705.53;1695922;83;21514;-51
2021/12/18 00:18:45;;;;;;;3.62;1.82;;;;;;;8.69;56.51;101707.70;1737445;80;21074;-50
2021/12/18 00:21:14;;;;;;;3.90;2.00;;;;;;;8.68;56.34;101708.55;1683911;83;21067;-51
2021/12/18 00:23:42;;;;;;;4.37;1.72;;;;;;;8.68;56.41;101712.45;1719772;82;21180;-51
2021/12/18 00:26:08;;;;;;;4.90;2.10;;;;;;;8.66;56.48;101702.50;1749835;80;21026;-51
2021/12/18 00:28:35;;;;;;;3.67;1.85;;;;;;;8.66;56.44;101701.20;1755906;80;21062;-51
2021/12/18 00:31:02;;;;;;;4.97;1.52;;;;;;;8.65;56.49;101705.97;1753773;80;21497;-51
2021/12/18 00:33:31;;;;;;;2.92;1.70;;;;;;;8.63;56.48;101704.69;1752718;80;21503;-51
2021/12/18 00:35:58;;;;;;;5.22;2.00;;;;;;;8.64;56.68;101705.10;1768726;80;21038;-50
2021/12/18 00:38:29;;;;;;;3.55;2.05;;;;;;;8.66;56.61;101712.88;1780813;80;21003;-51
2021/12/18 00:41:11;;;;;;;3.00;1.65;;;;;;;8.64;56.65;101706.82;1774536;80;21026;-50
2021/12/18 00:43:28;;;;;;;4.05;2.02;;;;;;;8.64;56.71;101709.41;1753104;80;21003;-51
2021/12/18 00:45:52;;;;;;;2.77;1.77;;;;;;;8.62;56.58;101705.53;1749568;80;21061;-50
2021/12/18 00:48:19;;;;;;;3.35;2.10;;;;;;;8.59;56.58;101705.97;1777079;80;21089;-51
2021/12/18 00:50:47;;;;;;;2.37;1.80;;;;;;;8.60;56.62;101705.96;1763059;80;21133;-51
2021/12/18 00:53:14;;;;;;;4.65;1.95;;;;;;;8.58;56.72;101696.44;1765824;80;21060;-50
2021/12/18 00:55:40;;;;;;;2.98;1.72;;;;;;;8.55;56.67;101704.23;1757372;80;21026;-51
2021/12/18 00:58:07;;;;;;;4.60;2.65;;;;;;;8.55;56.76;101709.42;1774402;80;21088;-51
2021/12/18 01:00:34;;;;;;;3.58;1.70;;;;;;;8.57;56.92;101698.61;1687577;83;21078;-50
2021/12/18 01:03:01;;;;;;;5.65;2.10;;;;;;;8.62;56.82;101712.44;1687385;82;21549;-50
2021/12/18 01:05:31;;;;;;;3.58;1.80;;;;;;;8.63;56.44;101703.39;1767501;80;21082;-50
2021/12/18 01:07:58;;;;;;;3.30;1.70;;;;;;;8.63;56.45;101706.41;1781474;80;21038;-50
2021/12/18 01:13:18;;;;;;;4.95;1.72;;;;;;;8.58;56.43;101706.81;1754274;80;21057;-50
2021/12/18 01:15:47;;;;;;;7.28;2.20;;;;;;;8.56;56.40;101705.95;1749080;80;21033;-51
2021/12/18 01:23:40;;;;;;;9.63;2.58;;;;;;;8.56;56.55;101711.14;1754066;80;21482;-50
2021/12/18 01:26:08;;;;;;;5.25;2.35;;;;;;;8.54;56.70;101713.73;1758262;80;21503;-51
2021/12/18 01:28:35;;;;;;;6.40;2.83;;;;;;;8.57;56.63;101724.56;1756359;80;21031;-51
2021/12/18 01:31:02;;;;;;;7.20;3.45;;;;;;;8.55;56.51;101713.31;1774387;80;21034;-51
2021/12/18 01:33:30;;;;;;;8.18;3.22;;;;;;;8.51;56.61;101717.61;1772957;80;21089;-50
2021/12/18 01:36:00;;;;;;;4.65;2.90;;;;;;;8.52;56.74;101719.77;1762528;80;21031;-50
2021/12/18 01:38:25;;;;;;;5.40;2.85;;;;;;;8.50;56.47;101713.72;1755110;81;21035;-51
2021/12/18 01:40:52;;;;;;;6.55;3.37;;;;;;;8.48;56.57;101712.85;1754557;80;21030;-50
2021/12/18 01:44:14;;;;;;;5.62;3.10;;;;;;;8.47;56.71;101716.33;1767838;80;21022;-51
2021/12/18 01:51:33;;;;;;;4.42;2.15;;;;;;;8.44;56.59;101722.78;1750791;80;22032;-52
2021/12/18 01:53:54;;;;;;;5.12;2.50;;;;;;;8.43;56.95;101723.66;1747562;80;22555;-51
2021/12/18 01:56:24;;;;;;;3.17;2.10;;;;;;;8.43;56.94;101723.66;1777066;80;21018;-51
2021/12/18 01:58:53;;;;;;;3.27;1.72;;;;;;;8.45;57.13;101725.83;1768127;80;21030;-52
2021/12/18 02:01:19;;;;;;;3.65;1.95;;;;;;;8.50;57.10;101730.58;1760098;80;21475;-52
2021/12/18 02:03:46;;;;;;;2.85;1.87;;;;;;;8.51;56.90;101731.87;1758705;80;21526;-52
2021/12/18 02:06:14;;;;;;;4.00;2.33;;;;;;;8.51;56.77;101725.84;1771536;80;21033;-52
2021/12/18 02:08:43;;;;;;;4.15;1.90;;;;;;;8.46;56.79;101730.14;1751881;80;21070;-52
2021/12/18 02:21:58;;;;;;;4.80;2.20;;;;;;;8.35;57.21;101737.89;1751202;80;21034;-51
2021/12/18 02:24:27;;;;;;;4.83;2.52;;;;;;;8.37;57.24;101741.77;1766189;80;21017;-52
2021/12/18 02:26:53;;;;;;;4.12;1.82;;;;;;;8.37;57.15;101750.85;1776994;80;21545;-51
2021/12/18 02:29:19;;;;;;;2.83;2.00;;;;;;;8.34;57.09;101752.16;1752278;80;21017;-51
2021/12/18 02:31:45;;;;;;;3.77;2.17;;;;;;;8.33;57.19;101755.17;1759239;81;21097;-52
2021/12/18 02:34:25;;;;;;;3.10;2.17;;;;;;;8.29;57.26;101753.43;1784138;80;21454;-52
2021/12/18 02:36:48;;;;;;;3.37;2.45;;;;;;;8.28;57.43;101762.51;1755643;80;21482;-52
2021/12/18 02:39:41;;;;;;;3.42;2.35;;;;;;;8.29;57.43;101757.74;1757212;80;21025;-52
2021/12/18 02:42:10;;;;;;;3.15;2.10;;;;;;;8.30;57.34;101764.68;1762695;80;21466;-52
2021/12/18 02:44:39;;;;;;;3.02;2.10;;;;;;;8.28;57.39;101762.09;1685249;83;21044;-52
2021/12/18 02:47:07;;;;;;;2.83;2.15;;;;;;;8.29;57.33;101763.80;1784450;80;21487;-52
2021/12/18 02:49:34;;;;;;;6.62;2.37;;;;;;;8.28;57.40;101768.99;1784318;80;21506;-52
2021/12/18 02:52:00;;;;;;;2.47;2.00;;;;;;;8.27;57.34;101769.84;1784467;80;21218;-52
2021/12/18 02:54:27;;;;;;;2.60;2.30;;;;;;;8.26;57.29;101762.94;1752088;80;21093;-52
2021/12/18 02:56:54;;;;;;;3.17;2.15;;;;;;;8.26;57.45;101775.90;1758404;80;21112;-52
2021/12/18 02:59:22;;;;;;;2.40;2.20;;;;;;;8.27;57.38;101781.50;1765689;80;21002;-52
2021/12/18 03:01:48;;;;;;;4.35;2.05;;;;;;;8.26;57.44;101783.68;1778804;80;21033;-52
2021/12/18 03:06:48;;;;;;;4.53;2.55;;;;;;;8.22;57.56;101791.39;1673845;84;21023;-52
2021/12/18 03:25:23;;;;;;;3.12;2.17;;;;;;;8.25;57.64;101811.33;1612923;86;21054;-52
2021/12/18 03:27:48;;;;;;;4.00;2.20;;;;;;;8.23;57.53;101811.30;1550278;90;21267;-51
2021/12/18 03:30:15;;;;;;;3.80;2.27;;;;;;;8.23;57.48;101810.00;1590490;88;21129;-53
2021/12/18 03:32:42;;;;;;;3.47;2.40;;;;;;;8.21;57.59;101816.91;1592411;88;21091;-53
2021/12/18 03:35:09;;;;;;;3.22;2.02;;;;;;;8.20;57.68;101815.16;1613410;86;21039;-52
2021/12/18 03:37:36;;;;;;;4.70;2.50;;;;;;;8.21;57.72;101815.61;1628203;86;21023;-51
2021/12/18 03:40:06;;;;;;;3.15;2.37;;;;;;;8.23;57.77;101811.72;1608339;87;21050;-52
2021/12/18 03:42:34;;;;;;;3.00;1.85;;;;;;;8.26;57.69;101826.04;1624828;85;21095;-51
2021/12/18 03:45:00;;;;;;;3.58;2.60;;;;;;;8.25;57.44;101816.52;1675462;83;21090;-52
2021/12/18 03:47:27;;;;;;;3.65;2.62;;;;;;;8.22;57.49;101825.09;1676941;83;21013;-52
2021/12/18 03:49:53;;;;;;;4.78;2.72;;;;;;;8.20;57.56;101826.82;1681552;83;21534;-52
2021/12/18 03:52:19;;;;;;;4.53;2.30;;;;;;;8.20;57.70;101832.00;1711104;83;21542;-51
2021/12/18 03:54:46;;;;;;;4.28;2.20;;;;;;;8.21;57.79;101827.27;1698368;83;21570;-51
2021/12/18 03:57:13;;;;;;;5.05;2.10;;;;;;;8.24;57.78;101843.28;1703323;83;21086;-52
2021/12/18 03:59:39;;;;;;;3.72;2.20;;;;;;;8.21;57.65;101845.42;1753799;80;21018;-51
2021/12/18 04:02:06;;;;;;;3.98;2.30;;;;;;;8.22;57.74;101853.63;1759500;80;21057;-51
2021/12/18 04:04:32;;;;;;;2.85;2.25;;;;;;;8.21;57.53;101853.20;1757055;80;21082;-52
2021/12/18 04:06:59;;;;;;;2.92;2.30;;;;;;;8.18;57.64;101861.41;1764714;80;20974;-52
2021/12/18 04:09:28;;;;;;;4.70;2.87;;;;;;;8.16;57.72;101860.53;1753600;80;21446;-52
2021/12/18 04:11:56;;;;;;;4.15;1.90;;;;;;;8.13;57.89;101861.79;1744904;80;21057;-52
2021/12/18 04:14:23;;;;;;;3.37;2.12;;;;;;;8.14;58.07;101862.20;1773020;80;21034;-52
2021/12/18 04:16:50;;;;;;;2.65;2.25;;;;;;;8.18;58.14;101864.84;1783450;80;21057;-51
2021/12/18 04:19:16;;;;;;;2.37;2.00;;;;;;;8.21;57.91;101870.05;1693472;83;21055;-52
2021/12/18 04:21:43;;;;;;;3.30;2.20;;;;;;;8.21;57.94;101875.23;1706048;83;21058;-51
2021/12/18 04:24:11;;;;;;;4.20;2.35;;;;;;;8.18;57.81;101872.61;1713062;83;21035;-51
2021/12/18 04:26:38;;;;;;;2.62;2.15;;;;;;;8.16;57.85;101879.52;1769341;80;20991;-51
2021/12/18 04:29:06;;;;;;;3.62;2.33;;;;;;;8.15;57.88;101882.11;1767709;80;21041;-52
2021/12/18 04:31:35;;;;;;;3.85;2.70;;;;;;;8.14;57.92;101885.13;1760992;80;20994;-51
2021/12/18 04:34:02;;;;;;;2.98;2.02;;;;;;;8.16;58.03;101888.59;1672845;84;21581;-51
2021/12/18 04:36:30;;;;;;;3.55;2.37;;;;;;;8.20;57.84;101898.13;1659090;85;21427;-51
2021/12/18 04:38:57;;;;;;;3.67;2.27;;;;;;;8.19;57.53;101901.59;1678499;85;21098;-51
2021/12/18 04:41:36;;;;;;;3.62;2.40;;;;;;;8.16;57.63;101902.84;1656105;85;21042;-51
2021/12/18 04:43:52;;;;;;;2.22;1.90;;;;;;;8.15;57.63;101900.26;1658289;85;21066;-51
2021/12/18 04:46:19;;;;;;;2.90;2.40;;;;;;;8.12;57.66;101901.09;1646077;85;21041;-51
2021/12/18 04:48:45;;;;;;;2.10;1.90;;;;;;;8.10;57.42;101900.22;1667313;84;21068;-52
2021/12/18 04:51:11;;;;;;;4.85;2.10;;;;;;;8.09;57.46;101902.81;1662249;85;21053;-51
2021/12/18 04:53:39;;;;;;;3.37;2.22;;;;;;;8.10;57.50;101908.00;1644164;86;21240;-52
2021/12/18 04:56:06;;;;;;;5.60;2.60;;;;;;;8.11;57.41;101914.06;1659545;85;21112;-52
2021/12/18 04:58:33;;;;;;;3.58;2.37;;;;;;;8.08;57.20;101921.37;1670757;85;21027;-51
2021/12/18 05:00:59;;;;;;;2.90;2.47;;;;;;;8.03;57.32;101916.61;1646911;85;21045;-52
2021/12/18 05:03:26;;;;;;;3.33;2.30;;;;;;;8.01;57.30;101929.98;1667141;84;21061;-52
2021/12/18 05:05:53;;;;;;;2.87;2.47;;;;;;;8.00;57.38;101929.53;1671839;85;21070;-52
2021/12/18 05:08:20;;;;;;;3.12;2.20;;;;;;;7.96;57.30;101935.55;1666176;85;21558;-51
2021/12/18 05:10:46;;;;;;;3.08;2.40;;;;;;;7.94;57.30;101933.38;1660310;85;21059;-51
2021/12/18 05:13:13;;;;;;;4.30;2.22;;;;;;;7.95;57.00;101941.61;1648300;85;21076;-52
2021/12/18 05:15:40;;;;;;;3.15;2.37;;;;;;;7.94;57.10;101937.69;1664155;85;21047;-51
2021/12/18 05:18:06;;;;;;;5.15;2.30;;;;;;;7.95;57.06;101954.56;1654754;85;21058;-52
2021/12/18 05:20:33;;;;;;;3.77;2.40;;;;;;;7.96;57.08;101949.80;1665610;85;21022;-51
2021/12/18 05:23:00;;;;;;;4.70;2.50;;;;;;;7.98;56.79;101953.70;1652040;85;21593;-51
2021/12/18 05:25:26;;;;;;;3.02;2.37;;;;;;;7.97;56.94;101955.45;1664441;85;21505;-51
2021/12/18 05:27:52;;;;;;;3.52;2.25;;;;;;;7.98;56.80;101959.75;1667068;84;21057;-52
2021/12/18 05:30:20;;;;;;;2.87;2.47;;;;;;;7.99;56.90;101964.10;1701898;80;21037;-53
2021/12/18 05:32:48;;;;;;;3.52;2.80;;;;;;;8.00;57.01;101962.35;1766308;80;20999;-52
2021/12/18 05:35:15;;;;;;;3.67;2.60;;;;;;;8.01;56.88;101964.98;1752927;80;21007;-51
2021/12/18 05:40:23;;;;;;;3.65;2.75;;;;;;;7.99;56.40;101969.28;1702172;83;21558;-51
2021/12/18 05:42:51;;;;;;;3.27;2.50;;;;;;;7.96;56.64;101977.02;1636839;86;21562;-51
2021/12/18 05:45:18;;;;;;;4.87;2.35;;;;;;;7.97;56.79;101980.06;1643567;86;21043;-51
2021/12/18 05:47:46;;;;;;;4.92;2.12;;;;;;;8.01;56.71;101980.53;1647050;86;21524;-51
2021/12/18 05:50:14;;;;;;;2.40;2.20;;;;;;;8.04;56.67;101983.13;1621104;87;21163;-51
2021/12/18 05:52:41;;;;;;;3.50;2.55;;;;;;;8.04;56.39;101988.31;1660001;84;21101;-52
2021/12/18 05:55:08;;;;;;;3.25;2.42;;;;;;;8.01;56.24;101993.48;1665234;84;21151;-52
2021/12/18 05:57:35;;;;;;;3.40;2.50;;;;;;;7.98;56.31;102001.22;1672440;84;21113;-51
2021/12/18 06:00:03;;;;;;;4.45;2.37;;;;;;;7.93;56.24;101997.71;1664063;85;21130;-51
2021/12/18 06:02:31;;;;;;;3.55;3.02;;;;;;;7.90;56.49;102013.25;1680672;84;21101;-51
2021/12/18 06:04:58;;;;;;;3.05;2.60;;;;;;;7.88;56.47;102017.55;1666207;84;21076;-51
2021/12/18 06:07:31;;;;;;;4.03;3.00;;;;;;;7.88;56.44;102019.27;1677082;84;21050;-51
2021/12/18 06:09:59;;;;;;;3.00;2.33;;;;;;;7.87;56.57;102022.27;1675087;85;21062;-51
2021/12/18 06:12:26;;;;;;;2.42;2.22;;;;;;;7.90;56.85;102023.62;1675631;84;21015;-52
2021/12/18 06:14:53;;;;;;;5.95;2.60;;;;;;;7.93;56.68;102031.41;1666328;84;21068;-51
2021/12/18 06:17:21;;;;;;;3.05;2.37;;;;;;;7.93;56.47;102030.56;1661809;84;21104;-51
2021/12/18 06:19:47;;;;;;;3.12;2.45;;;;;;;7.92;56.59;102036.16;1691216;84;21081;-51
2021/12/18 06:22:13;;;;;;;2.92;2.72;;;;;;;7.92;56.48;102033.56;1673680;84;21090;-51
2021/12/18 06:24:40;;;;;;;3.90;2.58;;;;;;;7.92;56.67;102040.05;1671613;84;21078;-51
2021/12/18 06:27:07;;;;;;;2.50;2.12;;;;;;;7.93;56.61;102041.77;1667595;84;21015;-51
2021/12/18 06:29:34;;;;;;;2.58;2.33;;;;;;;7.97;56.61;102039.68;1676771;84;21089;-52
2021/12/18 06:32:01;;;;;;;3.55;2.30;;;;;;;7.97;56.52;102040.97;1671419;84;21086;-51
2021/12/18 06:34:27;;;;;;;3.47;2.52;;;;;;;7.98;56.62;102051.77;1666930;84;21066;-52
2021/12/18 06:36:54;;;;;;;2.75;2.27;;;;;;;7.98;56.23;102055.66;1668633;84;21121;-52
2021/12/18 06:39:21;;;;;;;2.17;1.98;;;;;;;7.96;56.37;102059.95;1714871;80;21041;-51
2021/12/18 06:41:48;;;;;;;4.00;2.35;;;;;;;7.80;56.95;102063.25;1758532;80;21089;-51
2021/12/18 06:44:15;;;;;;;4.05;2.30;;;;;;;7.97;56.76;102063.00;1769330;80;20998;-52
2021/12/18 06:46:41;;;;;;;2.00;1.72;;;;;;;8.01;56.63;102075.56;1764022;80;21035;-54
2021/12/18 06:49:10;;;;;;;2.20;2.00;;;;;;;8.05;56.56;102074.31;1769538;80;21014;-51
2021/12/18 06:51:38;;;;;;;2.20;1.82;;;;;;;7.90;56.91;102079.34;1758984;80;21553;-52
2021/12/18 06:54:04;;;;;;;2.50;2.08;;;;;;;7.83;56.98;102080.11;1780547;80;22692;-52
2021/12/18 06:56:30;;;;;;;3.02;2.12;;;;;;;7.81;56.86;102085.70;1774074;80;21026;-51
2021/12/18 06:58:57;;;;;;;2.10;1.90;;;;;;;7.78;56.94;102084.39;1750494;81;21554;-51
2021/12/18 07:01:23;;;;;;;2.27;2.08;;;;;;;7.94;56.22;102090.59;1768668;80;21438;-51
2021/12/18 07:03:50;;;;;;;2.60;2.40;;;;;;;8.00;56.29;102092.83;1758410;80;21689;-52
2021/12/18 07:06:16;;;;;;;3.05;1.92;;;;;;;8.00;56.02;102096.71;1774428;80;21057;-52
2021/12/18 07:08:44;;;;;;;3.27;1.92;;;;;;;8.04;56.06;102098.90;1772386;80;21545;-51
2021/12/18 07:11:11;;;;;;;1.50;1.37;;;;;;;8.05;55.80;102099.36;1760860;80;21464;-51
2021/12/18 07:13:38;;;;;;;2.52;1.85;;;;;;;8.06;55.94;102100.66;1701852;83;21539;-51
2021/12/18 07:16:06;;;;;;;1.72;1.62;;;;;;;8.11;55.70;102105.48;1725186;81;21071;-52
2021/12/18 07:18:33;;;;;;;2.22;1.72;;;;;;;8.13;55.68;102098.58;1707509;83;21117;-51
2021/12/18 07:20:59;;;;;;;2.40;1.62;;;;;;;8.16;55.62;102102.48;1706307;83;21003;-51
2021/12/18 07:23:26;;;;;;;1.67;1.30;;;;;;;8.18;55.46;102105.95;1715502;84;21050;-51
2021/12/18 07:25:53;;;;;;;2.55;1.70;;;;;;;8.16;55.08;102100.34;1712138;83;21023;-51
2021/12/18 07:28:19;;;;;;;1.92;1.70;;;;;;;8.12;55.20;102114.97;1711421;83;21026;-51
2021/12/18 07:30:46;;;;;;;1.62;1.37;;;;;;;8.12;55.04;102112.38;1702960;83;21056;-51
2021/12/18 07:33:12;;;;;;;3.55;1.62;;;;;;;8.09;54.69;102112.79;1691753;83;21079;-51
2021/12/18 07:35:39;;;;;;;2.00;1.50;;;;;;;8.06;54.83;102117.52;1719528;82;21045;-51
2021/12/18 07:38:06;;;;;;;2.12;1.92;;;;;;;8.08;54.99;102117.52;1700941;83;21056;-51
2021/12/18 07:40:33;;;;;;;2.55;2.30;;;;;;;8.12;54.94;102117.98;1695017;83;21027;-51
2021/12/18 07:43:00;;;;;;;3.67;1.87;;;;;;;8.17;54.63;102119.80;1763371;80;21054;-51
2021/12/18 07:45:27;;;;;;;1.80;1.70;;;;;;;8.23;54.52;102117.67;1767361;80;20979;-51
2021/12/18 07:47:53;;;;;;;3.08;1.42;;;;;;;8.27;54.29;102119.89;1764649;80;21052;-51
2021/12/18 07:50:20;;;;;;;2.12;1.42;;;;;;;8.33;54.30;102125.13;1749409;80;21049;-51
2021/12/18 07:52:48;;;;;;;3.62;1.90;;;;;;;8.38;54.18;102125.64;1758145;80;20989;-51
2021/12/18 07:55:15;;;;;;;1.62;1.40;;;;;;;8.46;54.06;102130.47;1753226;80;21090;-52
2021/12/18 07:57:42;;;;;;;1.22;1.12;;;;;;;8.53;53.63;102132.69;1764942;80;21085;-52
2021/12/18 08:00:12;;;;;;;3.37;1.50;;;;;;;8.58;53.37;102140.06;1775456;80;21019;-51
2021/12/18 08:02:40;;;;;;;1.45;1.30;;;;;;;8.60;53.03;102144.42;1743356;80;21073;-51
2021/12/18 08:05:07;;;;;;;2.83;1.82;;;;;;;8.63;52.73;102148.77;1778537;80;21046;-51
2021/12/18 08:07:34;;;;;;;2.75;1.60;;;;;;;8.59;52.59;102140.52;1752029;80;21557;-51
2021/12/18 08:10:00;;;;;;;1.32;1.22;;;;;;;8.57;52.84;102146.97;1761987;80;21462;-51
2021/12/18 08:12:27;;;;;;;1.95;1.80;;;;;;;8.57;52.56;102143.53;1770472;80;20991;-51
2021/12/18 08:14:55;;;;;;;1.37;1.20;;;;;;;8.58;52.68;102149.14;1766928;80;21025;-51
2021/12/18 08:17:23;;;;;;;1.87;1.60;;;;;;;8.61;52.45;102153.08;1750925;81;21843;-51
2021/12/18 08:19:50;;;;;;;1.30;1.20;;;;;;;8.61;52.04;102153.08;1766594;80;21493;-51
2021/12/18 08:22:17;;;;;;;1.42;1.22;;;;;;;8.57;51.87;102146.13;1757630;80;21462;-53
2021/12/18 08:24:43;;;;;;;1.92;1.30;;;;;;;8.53;52.13;102152.14;1749687;80;22371;-51
2021/12/18 08:27:10;;;;;;;2.02;1.10;;;;;;;8.48;51.98;102146.03;1755415;80;21050;-51
2021/12/18 08:29:36;;;;;;;1.92;1.60;;;;;;;8.46;52.19;102151.22;1771013;80;21041;-51
2021/12/18 08:32:06;;;;;;;2.10;1.62;;;;;;;8.45;52.33;102151.21;1756490;80;20991;-51
2021/12/18 08:34:32;;;;;;;1.50;1.40;;;;;;;8.47;52.24;102154.69;1746521;80;21027;-51
2021/12/18 08:36:59;;;;;;;1.37;1.27;;;;;;;8.46;52.37;102146.03;1762818;80;21010;-51
2021/12/18 08:39:25;;;;;;;2.35;1.47;;;;;;;8.45;51.90;102140.84;1765141;80;21001;-51
2021/12/18 08:41:51;;;;;;;1.87;1.77;;;;;;;8.42;52.19;102143.39;1745950;80;21014;-51
2021/12/18 08:44:18;;;;;;;2.20;1.70;;;;;;;8.41;52.07;102142.96;1765798;80;21069;-52
2021/12/18 08:46:44;;;;;;;1.50;1.40;;;;;;;8.44;52.32;102141.67;1761825;80;21037;-51
2021/12/18 08:49:11;;;;;;;1.65;1.50;;;;;;;8.44;52.15;102145.56;1757511;80;21560;-51
2021/12/18 08:51:37;;;;;;;1.85;1.67;;;;;;;8.45;52.13;102140.84;1771292;80;21043;-51
2021/12/18 08:54:05;;;;;;;3.40;1.60;;;;;;;8.49;52.27;102140.01;1750036;80;21039;-51
2021/12/18 08:56:32;;;;;;;1.65;1.27;;;;;;;8.52;52.18;102138.30;1763160;80;21478;-51
2021/12/18 08:59:00;;;;;;;2.02;1.47;;;;;;;8.53;52.22;102134.83;1784212;80;21014;-51
2021/12/18 09:01:28;;;;;;;1.57;1.40;;;;;;;8.55;52.28;102143.49;1778304;80;21052;-51
2021/12/18 09:03:54;;;;;;;2.00;1.60;;;;;;;8.55;52.22;102140.05;1760369;80;21026;-51
2021/12/18 09:06:21;;;;;;;1.52;1.35;;;;;;;8.54;52.19;102135.70;1775657;80;21006;-51
2021/12/18 09:08:47;;;;;;;1.35;1.25;;;;;;;8.53;52.17;102132.23;1765961;80;21029;-51
2021/12/18 09:11:14;;;;;;;1.22;1.12;;;;;;;8.53;52.06;102132.23;1747947;80;21010;-51
2021/12/18 09:13:40;;;;;;;1.95;1.20;;;;;;;8.53;51.67;102128.80;1687861;83;21054;-52
2021/12/18 09:16:07;;;;;;;1.05;0.95;;;;;;;8.52;51.55;102139.59;1769184;80;21085;-52
2021/12/18 09:18:33;;;;;;;1.22;1.10;;;;;;;8.48;51.32;102130.47;1754481;80;20996;-51
2021/12/18 09:21:00;;;;;;;2.05;0.82;;;;;;;8.42;51.72;102135.61;1756155;80;21042;-51
2021/12/18 09:23:26;;;;;;;0.90;0.90;;;;;;;8.37;51.86;102132.09;1757945;80;21081;-52
2021/12/18 09:25:53;;;;;;;1.02;0.88;;;;;;;8.28;51.07;102139.80;1743261;81;21058;-51
2021/12/18 09:28:20;;;;;;;1.65;1.22;;;;;;;8.15;51.35;102131.87;1764832;80;21502;-52
2021/12/18 09:30:48;;;;;;;1.85;0.80;;;;;;;8.11;51.64;102132.70;1777878;80;21514;-51
2021/12/18 09:33:17;;;;;;;2.37;1.35;;;;;;;8.11;51.69;102138.30;1758139;80;21070;-51
2021/12/18 09:35:43;;;;;;;1.10;1.00;;;;;;;8.09;51.92;102131.81;1765848;80;21486;-52
2021/12/18 09:38:09;;;;;;;2.02;1.80;;;;;;;8.06;52.05;102127.88;1767627;80;21534;-52
2021/12/18 09:40:37;;;;;;;4.45;3.05;;;;;;;8.06;51.94;102142.13;1751132;81;21495;-51
2021/12/18 09:43:03;;;;;;;5.00;3.20;;;;;;;8.04;51.73;102134.77;1758190;80;21070;-52
2021/12/18 09:45:30;;;;;;;6.15;4.53;;;;;;;8.07;52.26;102137.41;1755805;80;21018;-51
2021/12/18 09:47:56;;;;;;;5.60;3.45;;;;;;;8.07;51.96;102130.05;1773411;80;20951;-51
2021/12/18 09:50:25;;;;;;;5.45;4.17;;;;;;;8.09;52.15;102134.41;1746920;80;21026;-52
2021/12/18 09:52:52;;;;;;;3.37;2.67;;;;;;;8.16;52.25;102133.59;1748416;80;21046;-52
2021/12/18 09:55:19;;;;;;;3.92;2.62;;;;;;;8.20;52.02;102122.39;1737832;81;21046;-52
2021/12/18 09:57:47;;;;;;;3.50;2.55;;;;;;;8.17;51.23;102119.80;1753933;80;21022;-51
2021/12/18 10:00:21;;;;;;;3.70;3.17;;;;;;;8.14;51.69;102122.34;1765885;80;21466;-52
2021/12/18 10:02:48;;;;;;;2.22;1.95;;;;;;;8.11;51.80;102122.33;1756700;80;21026;-52
2021/12/18 10:05:32;;;;;;;1.65;1.50;;;;;;;8.11;52.35;102122.33;1752814;80;21000;-51
2021/12/18 10:08:15;;;;;;;2.20;1.32;;;;;;;8.14;52.25;102131.41;1755976;80;20990;-51
2021/12/18 10:11:04;;;;;;;1.10;1.00;;;;;;;8.16;52.32;102124.97;1749190;80;21049;-50
2021/12/18 10:13:52;;;;;;;1.32;1.20;;;;;;;8.20;52.12;102124.98;1726117;81;21038;-51
2021/12/18 10:16:19;;;;;;;1.25;0.95;;;;;;;8.21;52.02;102126.75;1732965;80;21088;-51
2021/12/18 10:18:47;;;;;;;1.07;1.00;;;;;;;8.21;51.58;102131.93;1760962;80;21716;-50
2021/12/18 10:21:17;;;;;;;0.80;0.80;;;;;;;8.20;51.44;102126.28;1752285;80;21117;-51
2021/12/18 10:23:45;;;;;;;2.52;0.88;;;;;;;8.17;51.40;102118.92;1751302;80;21081;-51
2021/12/18 10:26:37;;;;;;;0.90;0.90;;;;;;;8.14;51.34;102120.17;1744694;80;21041;-50
2021/12/18 10:29:23;;;;;;;1.67;0.90;;;;;;;8.11;51.15;102119.73;1748316;80;21010;-51
2021/12/18 10:31:50;;;;;;;1.10;1.00;;;;;;;8.08;51.29;102122.28;1782590;80;21018;-50
2021/12/18 10:34:21;;;;;;;1.32;1.00;;;;;;;8.06;51.47;102118.80;1749583;80;21030;-51
2021/12/18 10:37:24;;;;;;;4.00;1.10;;;;;;;8.07;51.31;102115.38;1741159;81;21011;-51
2021/12/18 10:39:59;;;;;;;2.98;0.95;;;;;;;8.11;51.71;102115.84;1770788;80;21079;-51
2021/12/18 10:42:46;;;;;;;2.00;1.37;;;;;;;8.15;51.29;102118.91;1754269;80;21062;-51
2021/12/18 10:45:25;;;;;;;1.92;1.55;;;;;;;8.18;51.21;102117.63;1761595;80;21509;-51
2021/12/18 10:48:08;;;;;;;1.62;1.40;;;;;;;8.24;51.51;102116.39;1751166;80;20975;-51
2021/12/18 10:50:49;;;;;;;4.90;3.60;;;;;;;8.30;51.51;102109.56;1745754;81;21155;-51
2021/12/18 10:53:25;;;;;;;4.40;2.90;;;;;;;8.32;50.94;102111.33;1745137;81;21813;-51
2021/12/18 10:56:02;;;;;;;2.98;2.37;;;;;;;8.32;51.16;102109.15;1730624;82;21066;-51
2021/12/18 10:58:33;;;;;;;1.67;1.57;;;;;;;8.33;51.19;102109.58;1754700;80;21086;-51
2021/12/18 11:01:12;;;;;;;4.08;2.08;;;;;;;8.36;51.44;102113.51;1766515;80;21065;-51
2021/12/18 11:03:46;;;;;;;2.85;2.10;;;;;;;8.37;51.32;102113.93;1760051;80;21001;-52
2021/12/18 11:06:23;;;;;;;3.33;2.40;;;;;;;8.41;51.45;102120.92;1755738;80;21054;-53
2021/12/18 11:09:12;;;;;;;3.10;2.25;;;;;;;8.42;50.70;102120.05;1743820;80;21018;-51
2021/12/18 11:14:22;;;;;;;1.20;1.00;;;;;;;8.48;50.03;102113.61;1720614;83;21030;-51
2021/12/18 11:16:54;;;;;;;1.20;0.88;;;;;;;8.46;49.90;102111.43;1712857;83;21125;-51
2021/12/18 11:19:26;;;;;;;1.85;0.80;;;;;;;8.42;49.94;102112.27;1704207;83;21505;-51
2021/12/18 11:22:06;;;;;;;2.02;0.90;;;;;;;8.42;50.22;102120.05;1690486;81;21202;-51
2021/12/18 11:24:55;;;;;;;1.42;0.78;;;;;;;8.42;50.29;102112.27;1655349;84;21029;-51
2021/12/18 11:27:21;;;;;;;1.35;0.80;;;;;;;8.47;50.24;102118.37;1670367;84;21053;-51
2021/12/18 11:30:00;;;;;;;1.22;0.85;;;;;;;8.51;50.03;102111.05;1658933;83;21082;-51
2021/12/18 11:32:30;;;;;;;1.20;0.93;;;;;;;8.51;49.62;102123.57;1666778;85;21060;-51
2021/12/18 11:35:03;;;;;;;0.98;0.65;;;;;;;8.52;49.74;102122.73;1682446;84;21109;-52
2021/12/18 11:37:48;;;;;;;1.17;0.68;;;;;;;8.53;49.88;102126.20;1680454;83;21057;-52
2021/12/18 11:40:19;;;;;;;1.30;0.98;;;;;;;8.50;50.30;102132.65;1670827;84;21034;-51
2021/12/18 11:42:46;;;;;;;2.30;1.05;;;;;;;8.49;51.10;102130.92;1673374;84;21111;-51
2021/12/18 11:45:13;;;;;;;1.12;1.02;;;;;;;8.46;51.51;102123.10;1657255;85;21065;-51
2021/12/18 11:47:56;;;;;;;1.07;0.82;;;;;;;8.45;50.94;102130.01;1653251;85;21078;-52
2021/12/18 11:50:33;;;;;;;1.75;1.30;;;;;;;8.44;49.84;102127.41;1669529;84;21650;-52
2021/12/18 11:53:10;;;;;;;1.62;1.20;;;;;;;8.40;49.76;102125.64;1692449;83;21067;-52
2021/12/18 11:55:56;;;;;;;1.70;1.60;;;;;;;8.41;49.95;102123.51;1646936;86;21451;-51
2021/12/18 11:58:34;;;;;;;1.60;1.27;;;;;;;8.43;50.20;102121.80;1712560;83;21026;-51
2021/12/18 12:01:25;;;;;;;0.85;0.82;;;;;;;8.45;50.13;102114.90;1717536;80;21030;-51
2021/12/18 12:03:58;;;;;;;4.00;1.72;;;;;;;8.48;49.57;102113.61;1757236;80;20939;-50
2021/12/18 12:06:38;;;;;;;1.62;1.30;;;;;;;8.48;49.24;102111.02;1770508;80;21043;-53
2021/12/18 12:12:04;;;;;;;1.95;1.00;;;;;;;8.47;49.04;102113.19;1670977;84;21810;-53
2021/12/18 12:14:37;;;;;;;1.05;0.95;;;;;;;8.44;49.29;102112.72;1678721;84;21142;-53
2021/12/18 12:17:21;;;;;;;1.98;1.25;;;;;;;8.42;49.50;102118.33;1648509;85;21545;-53
2021/12/18 12:19:56;;;;;;;2.05;1.40;;;;;;;8.42;50.36;102120.92;1650112;85;21082;-53
2021/12/18 12:22:47;;;;;;;2.08;1.45;;;;;;;8.36;51.41;102132.95;1585829;88;21136;-53
2021/12/18 12:25:15;;;;;;;3.33;1.65;;;;;;;8.24;52.27;102124.16;1487711;95;21104;-53
2021/12/18 12:27:45;;;;;;;2.87;1.50;;;;;;;8.14;52.78;102119.75;1488543;95;21092;-51
2021/12/18 12:30:29;;;;;;;4.20;2.50;;;;;;;8.10;52.79;102115.39;1487650;95;21107;-53
2021/12/18 12:33:01;;;;;;;3.12;2.25;;;;;;;8.08;52.64;102118.39;1484500;95;21082;-54
2021/12/18 12:35:27;;;;;;;;;;;;;;;8.03;52.74;102130.45;1478897;97;21153;-51